sensor_id;sensor_type;location;lat;lon;timestamp;pressure;altitude;pressure_sealevel;temperature;humidity
31775;BME280;66189;49.000;11.640;2023-03-03T00:00:56;95995.81;;;2.63;65.53
31775;BME280;66189;49.000;11.640;2023-03-03T00:03:03;95995.47;;;2.56;65.82
31775;BME280;66189;49.000;11.640;2023-03-03T00:05:05;95990.75;;;2.53;65.86
31775;BME280;66189;49.000;11.640;2023-03-03T00:07:06;95985.94;;;2.55;65.75
31775;BME280;66189;49.000;11.640;2023-03-03T00:09:06;95991.56;;;2.54;65.83
31775;BME280;66189;49.000;11.640;2023-03-03T00:11:06;95991.50;;;2.45;65.94
31775;BME280;66189;49.000;11.640;2023-03-03T00:13:17;95996.69;;;2.50;65.57
31775;BME280;66189;49.000;11.640;2023-03-03T00:15:21;95994.69;;;2.56;65.29
31775;BME280;66189;49.000;11.640;2023-03-03T00:17:25;96002.59;;;2.47;65.64
31775;BME280;66189;49.000;11.640;2023-03-03T00:19:25;96000.19;;;2.37;65.71
31775;BME280;66189;49.000;11.640;2023-03-03T00:21:31;95992.22;;;2.37;66.22
31775;BME280;66189;49.000;11.640;2023-03-03T00:23:37;95996.59;;;2.33;65.99
31775;BME280;66189;49.000;11.640;2023-03-03T00:25:42;95994.53;;;2.29;66.39
31775;BME280;66189;49.000;11.640;2023-03-03T00:27:42;95989.03;;;2.26;66.08
31775;BME280;66189;49.000;11.640;2023-03-03T00:29:49;95995.91;;;2.27;65.88
31775;BME280;66189;49.000;11.640;2023-03-03T00:31:51;95999.47;;;2.22;66.16
31775;BME280;66189;49.000;11.640;2023-03-03T00:33:54;96003.81;;;2.18;66.27
31775;BME280;66189;49.000;11.640;2023-03-03T00:35:55;96004.41;;;2.15;66.14
31775;BME280;66189;49.000;11.640;2023-03-03T00:37:58;96003.75;;;2.09;66.71
31775;BME280;66189;49.000;11.640;2023-03-03T00:40:21;96003.09;;;2.04;66.82
31775;BME280;66189;49.000;11.640;2023-03-03T00:42:23;96001.94;;;1.96;66.46
31775;BME280;66189;49.000;11.640;2023-03-03T00:46:41;96006.50;;;1.82;67.32
31775;BME280;66189;49.000;11.640;2023-03-03T00:48:42;96001.63;;;1.75;67.78
31775;BME280;66189;49.000;11.640;2023-03-03T00:50:43;96005.34;;;1.74;67.49
31775;BME280;66189;49.000;11.640;2023-03-03T00:52:47;96006.53;;;1.68;67.82
31775;BME280;66189;49.000;11.640;2023-03-03T00:54:52;95996.53;;;1.65;68.12
31775;BME280;66189;49.000;11.640;2023-03-03T00:56:52;96005.66;;;1.58;67.53
31775;BME280;66189;49.000;11.640;2023-03-03T00:58:53;95994.59;;;1.56;68.64
31775;BME280;66189;49.000;11.640;2023-03-03T01:00:55;95995.97;;;1.54;68.50
31775;BME280;66189;49.000;11.640;2023-03-03T01:03:11;95990.28;;;1.47;68.51
31775;BME280;66189;49.000;11.640;2023-03-03T01:05:13;95992.31;;;1.50;68.85
31775;BME280;66189;49.000;11.640;2023-03-03T01:07:14;95995.38;;;1.43;68.49
31775;BME280;66189;49.000;11.640;2023-03-03T01:09:14;95994.28;;;1.44;68.29
31775;BME280;66189;49.000;11.640;2023-03-03T01:11:16;95989.78;;;1.45;68.54
31775;BME280;66189;49.000;11.640;2023-03-03T01:13:21;95999.72;;;1.39;68.18
31775;BME280;66189;49.000;11.640;2023-03-03T01:15:23;95993.03;;;1.41;68.74
31775;BME280;66189;49.000;11.640;2023-03-03T01:17:24;95991.63;;;1.44;68.59
31775;BME280;66189;49.000;11.640;2023-03-03T01:19:24;95987.13;;;1.45;68.47
31775;BME280;66189;49.000;11.640;2023-03-03T01:21:24;95984.09;;;1.37;68.14
31775;BME280;66189;49.000;11.640;2023-03-03T01:23:25;95991.47;;;1.40;67.77
31775;BME280;66189;49.000;11.640;2023-03-03T01:25:26;95991.16;;;1.42;68.04
31775;BME280;66189;49.000;11.640;2023-03-03T01:27:26;95990.59;;;1.31;68.08
31775;BME280;66189;49.000;11.640;2023-03-03T01:29:27;95994.31;;;1.30;68.13
31775;BME280;66189;49.000;11.640;2023-03-03T01:31:28;95992.97;;;1.19;68.95
31775;BME280;66189;49.000;11.640;2023-03-03T01:33:29;95995.41;;;1.15;69.14
31775;BME280;66189;49.000;11.640;2023-03-03T01:35:30;95988.34;;;1.11;69.47
31775;BME280;66189;49.000;11.640;2023-03-03T01:37:33;95986.50;;;0.97;69.54
31775;BME280;66189;49.000;11.640;2023-03-03T01:39:34;95992.63;;;0.79;69.91
31775;BME280;66189;49.000;11.640;2023-03-03T01:41:34;95989.13;;;0.83;69.65
31775;BME280;66189;49.000;11.640;2023-03-03T01:43:42;95990.50;;;0.81;69.89
31775;BME280;66189;49.000;11.640;2023-03-03T01:50:11;95989.97;;;0.65;70.21
31775;BME280;66189;49.000;11.640;2023-03-03T01:52:37;95987.34;;;0.65;70.40
31775;BME280;66189;49.000;11.640;2023-03-03T01:54:44;95984.97;;;0.63;70.11
31775;BME280;66189;49.000;11.640;2023-03-03T01:56:48;95984.97;;;0.63;69.86
31775;BME280;66189;49.000;11.640;2023-03-03T01:58:52;95984.19;;;0.63;70.32
31775;BME280;66189;49.000;11.640;2023-03-03T02:00:59;95985.78;;;0.64;70.65
31775;BME280;66189;49.000;11.640;2023-03-03T02:03:01;95983.31;;;0.67;70.01
31775;BME280;66189;49.000;11.640;2023-03-03T02:05:02;95983.50;;;0.71;69.70
31775;BME280;66189;49.000;11.640;2023-03-03T02:07:06;95986.38;;;0.75;69.66
31775;BME280;66189;49.000;11.640;2023-03-03T02:09:22;95988.31;;;0.69;69.44
31775;BME280;66189;49.000;11.640;2023-03-03T02:11:26;95988.31;;;0.69;69.69
31775;BME280;66189;49.000;11.640;2023-03-03T02:13:28;95993.03;;;0.72;69.65
31775;BME280;66189;49.000;11.640;2023-03-03T02:15:32;95982.03;;;0.65;69.13
31775;BME280;66189;49.000;11.640;2023-03-03T02:17:35;95982.03;;;0.65;69.41
31775;BME280;66189;49.000;11.640;2023-03-03T02:21:44;95982.22;;;0.55;69.47
31775;BME280;66189;49.000;11.640;2023-03-03T02:26:30;95989.19;;;0.50;70.26
31775;BME280;66189;49.000;11.640;2023-03-03T02:28:37;95991.84;;;0.50;70.21
31775;BME280;66189;49.000;11.640;2023-03-03T02:30:40;95988.66;;;0.48;70.08
31775;BME280;66189;49.000;11.640;2023-03-03T02:32:42;95993.19;;;0.48;70.18
31775;BME280;66189;49.000;11.640;2023-03-03T02:34:45;95989.53;;;0.44;69.88
31775;BME280;66189;49.000;11.640;2023-03-03T02:36:46;95991.63;;;0.47;70.58
31775;BME280;66189;49.000;11.640;2023-03-03T02:39:22;95990.34;;;0.44;70.43
31775;BME280;66189;49.000;11.640;2023-03-03T02:43:38;95985.41;;;0.38;70.56
31775;BME280;66189;49.000;11.640;2023-03-03T02:45:42;95991.00;;;0.36;70.98
31775;BME280;66189;49.000;11.640;2023-03-03T02:47:48;95978.28;;;0.38;70.54
31775;BME280;66189;49.000;11.640;2023-03-03T02:49:51;95981.22;;;0.37;71.17
31775;BME280;66189;49.000;11.640;2023-03-03T02:51:52;95985.13;;;0.39;71.90
31775;BME280;66189;49.000;11.640;2023-03-03T02:53:53;95986.00;;;0.34;73.87
31775;BME280;66189;49.000;11.640;2023-03-03T02:55:53;95985.41;;;0.38;72.74
31775;BME280;66189;49.000;11.640;2023-03-03T02:57:54;95990.66;;;0.43;71.79
31775;BME280;66189;49.000;11.640;2023-03-03T02:59:54;95980.72;;;0.48;71.44
31775;BME280;66189;49.000;11.640;2023-03-03T03:01:55;95988.09;;;0.51;70.60
31775;BME280;66189;49.000;11.640;2023-03-03T03:03:56;95985.66;;;0.55;70.72
31775;BME280;66189;49.000;11.640;2023-03-03T03:05:57;95984.78;;;0.60;71.22
31775;BME280;66189;49.000;11.640;2023-03-03T03:07:58;95990.56;;;0.62;71.37
31775;BME280;66189;49.000;11.640;2023-03-03T03:09:59;95987.34;;;0.65;72.37
31775;BME280;66189;49.000;11.640;2023-03-03T03:12:02;95988.63;;;0.67;72.31
31775;BME280;66189;49.000;11.640;2023-03-03T03:14:06;95982.91;;;0.60;72.33
31775;BME280;66189;49.000;11.640;2023-03-03T03:16:07;95976.91;;;0.55;72.33
31775;BME280;66189;49.000;11.640;2023-03-03T03:18:07;95992.16;;;0.63;71.88
31775;BME280;66189;49.000;11.640;2023-03-03T03:20:08;95986.84;;;0.63;71.56
31775;BME280;66189;49.000;11.640;2023-03-03T03:22:09;95994.22;;;0.66;71.79
31775;BME280;66189;49.000;11.640;2023-03-03T03:24:10;95989.91;;;0.70;71.55
31775;BME280;66189;49.000;11.640;2023-03-03T03:26:14;95993.03;;;0.72;71.17
31775;BME280;66189;49.000;11.640;2023-03-03T03:28:15;95994.81;;;0.77;71.51
31775;BME280;66189;49.000;11.640;2023-03-03T03:30:16;95988.03;;;0.70;73.30
31775;BME280;66189;49.000;11.640;2023-03-03T03:32:21;95988.81;;;0.71;74.34
31775;BME280;66189;49.000;11.640;2023-03-03T03:34:22;95987.16;;;0.75;73.44
31775;BME280;66189;49.000;11.640;2023-03-03T03:36:24;95979.50;;;0.74;72.17
31775;BME280;66189;49.000;11.640;2023-03-03T03:38:27;95997.44;;;0.77;72.17
31775;BME280;66189;49.000;11.640;2023-03-03T03:40:29;95988.91;;;0.80;73.08
31775;BME280;66189;49.000;11.640;2023-03-03T03:42:29;95990.97;;;0.83;72.99
31775;BME280;66189;49.000;11.640;2023-03-03T03:44:33;95997.56;;;0.85;72.02
31775;BME280;66189;49.000;11.640;2023-03-03T03:46:33;95989.91;;;0.84;72.33
31775;BME280;66189;49.000;11.640;2023-03-03T03:48:35;95988.03;;;0.84;71.96
31775;BME280;66189;49.000;11.640;2023-03-03T03:50:37;95988.94;;;0.94;71.38
31775;BME280;66189;49.000;11.640;2023-03-03T03:52:38;95991.69;;;0.88;71.75
31775;BME280;66189;49.000;11.640;2023-03-03T03:54:39;95989.63;;;0.85;72.45
31775;BME280;66189;49.000;11.640;2023-03-03T03:56:39;95995.22;;;0.84;72.25
31775;BME280;66189;49.000;11.640;2023-03-03T03:58:41;95984.03;;;0.87;71.93
31775;BME280;66189;49.000;11.640;2023-03-03T04:00:44;95990.09;;;0.87;71.74
31775;BME280;66189;49.000;11.640;2023-03-03T04:02:45;95986.88;;;0.91;72.06
31775;BME280;66189;49.000;11.640;2023-03-03T04:04:48;95992.16;;;0.91;72.19
31775;BME280;66189;49.000;11.640;2023-03-03T04:06:49;95996.88;;;0.94;72.43
31775;BME280;66189;49.000;11.640;2023-03-03T04:08:49;95989.03;;;0.88;72.73
31775;BME280;66189;49.000;11.640;2023-03-03T04:10:52;96000.50;;;0.84;73.02
31775;BME280;66189;49.000;11.640;2023-03-03T04:12:53;95997.56;;;0.85;73.77
31775;BME280;66189;49.000;11.640;2023-03-03T04:14:54;95999.13;;;0.86;72.42
31775;BME280;66189;49.000;11.640;2023-03-03T04:16:55;96008.53;;;0.79;72.35
31775;BME280;66189;49.000;11.640;2023-03-03T04:18:56;95999.69;;;0.83;72.49
31775;BME280;66189;49.000;11.640;2023-03-03T04:20:57;96000.50;;;0.84;71.97
31775;BME280;66189;49.000;11.640;2023-03-03T04:22:59;95999.22;;;0.81;71.93
31775;BME280;66189;49.000;11.640;2023-03-03T04:25:01;96002.88;;;0.85;72.10
31775;BME280;66189;49.000;11.640;2023-03-03T04:27:06;96003.22;;;0.79;72.35
31775;BME280;66189;49.000;11.640;2023-03-03T04:29:09;95999.31;;;0.76;71.66
31775;BME280;66189;49.000;11.640;2023-03-03T04:31:09;96004.91;;;0.75;71.38
31775;BME280;66189;49.000;11.640;2023-03-03T04:33:10;96002.56;;;0.73;71.41
31775;BME280;66189;49.000;11.640;2023-03-03T04:35:13;96012.34;;;0.73;71.62
31775;BME280;66189;49.000;11.640;2023-03-03T04:37:16;96003.16;;;0.70;71.60
31775;BME280;66189;49.000;11.640;2023-03-03T04:39:17;96004.81;;;0.66;71.80
31775;BME280;66189;49.000;11.640;2023-03-03T04:41:17;96005.88;;;0.65;71.57
31775;BME280;66189;49.000;11.640;2023-03-03T04:43:19;96003.81;;;0.62;71.68
31775;BME280;66189;49.000;11.640;2023-03-03T04:45:20;96000.44;;;0.56;72.00
31775;BME280;66189;49.000;11.640;2023-03-03T04:47:22;96003.91;;;0.57;71.67
31775;BME280;66189;49.000;11.640;2023-03-03T04:49:22;96009.50;;;0.55;71.80
31775;BME280;66189;49.000;11.640;2023-03-03T04:51:23;96007.13;;;0.53;72.10
31775;BME280;66189;49.000;11.640;2023-03-03T04:53:23;96011.44;;;0.49;72.38
31775;BME280;66189;49.000;11.640;2023-03-03T04:55:25;96013.50;;;0.52;72.31
31775;BME280;66189;49.000;11.640;2023-03-03T04:57:25;96015.13;;;0.48;72.70
31775;BME280;66189;49.000;11.640;2023-03-03T04:59:27;96017.22;;;0.51;72.69
31775;BME280;66189;49.000;11.640;2023-03-03T05:01:27;96013.16;;;0.40;72.89
31775;BME280;66189;49.000;11.640;2023-03-03T05:03:29;96018.16;;;0.42;73.09
31775;BME280;66189;49.000;11.640;2023-03-03T05:05:29;96017.47;;;0.36;72.89
31775;BME280;66189;49.000;11.640;2023-03-03T05:07:30;96015.91;;;0.35;72.92
31775;BME280;66189;49.000;11.640;2023-03-03T05:09:30;96021.69;;;0.37;72.81
31775;BME280;66189;49.000;11.640;2023-03-03T05:11:31;96018.84;;;0.33;72.85
31775;BME280;66189;49.000;11.640;2023-03-03T05:13:31;96025.41;;;0.36;72.70
31775;BME280;66189;49.000;11.640;2023-03-03T05:15:32;96020.91;;;0.37;72.59
31775;BME280;66189;49.000;11.640;2023-03-03T05:17:32;96018.84;;;0.33;72.42
31775;BME280;66189;49.000;11.640;2023-03-03T05:19:32;96024.34;;;0.37;72.24
31775;BME280;66189;49.000;11.640;2023-03-03T05:21:34;96025.41;;;0.36;72.38
31775;BME280;66189;49.000;11.640;2023-03-03T05:23:34;96030.78;;;0.31;72.54
31775;BME280;66189;49.000;11.640;2023-03-03T05:25:34;96027.63;;;0.29;72.33
31775;BME280;66189;49.000;11.640;2023-03-03T05:27:35;96025.38;;;0.22;72.27
31775;BME280;66189;49.000;11.640;2023-03-03T05:29:35;96024.50;;;0.27;71.85
31775;BME280;66189;49.000;11.640;2023-03-03T05:31:36;96023.72;;;0.26;72.06
31775;BME280;66189;49.000;11.640;2023-03-03T05:33:36;96031.84;;;0.30;71.29
31775;BME280;66189;49.000;11.640;2023-03-03T05:35:37;96026.84;;;0.28;71.58
31775;BME280;66189;49.000;11.640;2023-03-03T05:37:37;96029.78;;;0.27;71.69
31775;BME280;66189;49.000;11.640;2023-03-03T05:39:41;96033.78;;;0.24;71.90
31775;BME280;66189;49.000;11.640;2023-03-03T05:41:43;96038.31;;;0.24;72.82
31775;BME280;66189;49.000;11.640;2023-03-03T05:43:44;96043.69;;;0.19;73.01
31775;BME280;66189;49.000;11.640;2023-03-03T05:45:44;96041.53;;;0.21;72.38
31775;BME280;66189;49.000;11.640;2023-03-03T05:47:48;96043.97;;;0.17;72.13
31775;BME280;66189;49.000;11.640;2023-03-03T05:49:48;96041.66;;;0.10;72.56
31775;BME280;66189;49.000;11.640;2023-03-03T05:51:49;96045.97;;;0.06;72.98
31775;BME280;66189;49.000;11.640;2023-03-03T05:53:49;96042.25;;;0.07;72.69
31775;BME280;66189;49.000;11.640;2023-03-03T05:55:50;96049.69;;;0.05;72.34
31775;BME280;66189;49.000;11.640;2023-03-03T05:57:50;96039.59;;;0.07;72.14
31775;BME280;66189;49.000;11.640;2023-03-03T05:59:50;96042.75;;;0.09;71.63
31775;BME280;66189;49.000;11.640;2023-03-03T06:01:51;96040.31;;;0.13;71.08
31775;BME280;66189;49.000;11.640;2023-03-03T06:03:54;96045.91;;;0.11;70.75
31775;BME280;66189;49.000;11.640;2023-03-03T06:05:55;96041.66;;;0.10;70.59
31775;BME280;66189;49.000;11.640;2023-03-03T06:07:55;96049.03;;;0.13;71.03
31775;BME280;66189;49.000;11.640;2023-03-03T06:09:56;96048.53;;;0.11;71.42
31775;BME280;66189;49.000;11.640;2023-03-03T06:11:58;96049.31;;;0.12;71.84
31775;BME280;66189;49.000;11.640;2023-03-03T06:13:58;96056.38;;;0.16;72.25
31775;BME280;66189;49.000;11.640;2023-03-03T06:15:59;96065.41;;;0.15;72.23
31775;BME280;66189;49.000;11.640;2023-03-03T06:17:59;96062.78;;;0.15;71.81
31775;BME280;66189;49.000;11.640;2023-03-03T06:20:00;96066.19;;;0.16;71.50
31775;BME280;66189;49.000;11.640;2023-03-03T06:22:02;96073.28;;;0.21;70.76
31775;BME280;66189;49.000;11.640;2023-03-03T06:24:03;96064.84;;;0.19;70.14
31775;BME280;66189;49.000;11.640;2023-03-03T06:26:04;96058.97;;;0.22;69.92
31775;BME280;66189;49.000;11.640;2023-03-03T06:28:04;96065.25;;;0.26;69.66
31775;BME280;66189;49.000;11.640;2023-03-03T06:30:05;96058.31;;;0.30;69.22
31775;BME280;66189;49.000;11.640;2023-03-03T06:32:06;96065.19;;;0.31;68.26
31775;BME280;66189;49.000;11.640;2023-03-03T06:34:06;96068.56;;;0.37;68.63
31775;BME280;66189;49.000;11.640;2023-03-03T06:36:07;96069.53;;;0.41;68.99
31775;BME280;66189;49.000;11.640;2023-03-03T06:38:07;96068.94;;;0.44;68.33
31775;BME280;66189;49.000;11.640;2023-03-03T06:40:08;96074.94;;;0.49;67.42
31775;BME280;66189;49.000;11.640;2023-03-03T06:42:09;96072.44;;;0.58;67.94
31775;BME280;66189;49.000;11.640;2023-03-03T06:44:09;96069.69;;;0.63;67.75
31775;BME280;66189;49.000;11.640;2023-03-03T06:46:11;96075.69;;;0.69;67.28
31775;BME280;66189;49.000;11.640;2023-03-03T06:48:11;96080.41;;;0.72;67.04
31775;BME280;66189;49.000;11.640;2023-03-03T06:50:12;96081.50;;;0.85;67.84
31775;BME280;66189;49.000;11.640;2023-03-03T06:52:18;96080.56;;;0.95;67.29
31775;BME280;66189;49.000;11.640;2023-03-03T06:54:26;96088.06;;;1.06;67.11
31775;BME280;66189;49.000;11.640;2023-03-03T06:56:36;96091.88;;;1.14;66.14
31775;BME280;66189;49.000;11.640;2023-03-03T06:58:36;96101.22;;;1.26;66.35
31775;BME280;66189;49.000;11.640;2023-03-03T07:00:36;96107.91;;;1.37;66.52
31775;BME280;66189;49.000;11.640;2023-03-03T07:02:37;96101.13;;;1.45;65.35
31775;BME280;66189;49.000;11.640;2023-03-03T07:04:37;96105.66;;;1.58;65.05
31775;BME280;66189;49.000;11.640;2023-03-03T07:06:38;96100.53;;;1.62;64.65
31775;BME280;66189;49.000;11.640;2023-03-03T07:08:39;96099.94;;;1.78;64.08
31775;BME280;66189;49.000;11.640;2023-03-03T07:10:40;96095.31;;;1.84;63.69
31775;BME280;66189;49.000;11.640;2023-03-03T07:12:41;96100.72;;;1.93;63.60
31775;BME280;66189;49.000;11.640;2023-03-03T07:14:43;96103.13;;;2.03;62.98
31775;BME280;66189;49.000;11.640;2023-03-03T07:16:44;96109.59;;;2.11;63.14
31775;BME280;66189;49.000;11.640;2023-03-03T07:20:45;96104.44;;;2.28;62.43
31775;BME280;66189;49.000;11.640;2023-03-03T07:22:46;96112.78;;;2.36;62.31
31775;BME280;66189;49.000;11.640;2023-03-03T07:24:49;96111.09;;;2.40;61.87
31775;BME280;66189;49.000;11.640;2023-03-03T07:26:50;96116.69;;;2.52;61.84
31775;BME280;66189;49.000;11.640;2023-03-03T07:28:54;96123.91;;;2.60;61.39
31775;BME280;66189;49.000;11.640;2023-03-03T07:30:56;96115.22;;;2.69;61.68
31775;BME280;66189;49.000;11.640;2023-03-03T07:32:57;96119.19;;;3.02;64.37
31775;BME280;66189;49.000;11.640;2023-03-03T07:34:58;96118.41;;;3.33;66.94
31775;BME280;66189;49.000;11.640;2023-03-03T07:37:01;96114.00;;;3.29;62.56
31775;BME280;66189;49.000;11.640;2023-03-03T07:39:30;96113.69;;;3.30;60.09
31775;BME280;66189;49.000;11.640;2023-03-03T07:41:33;96120.28;;;3.33;60.73
31775;BME280;66189;49.000;11.640;2023-03-03T07:43:39;96119.84;;;3.40;59.05
31775;BME280;66189;49.000;11.640;2023-03-03T07:45:42;96122.06;;;3.46;58.73
31775;BME280;66189;49.000;11.640;2023-03-03T07:47:43;96123.81;;;3.51;57.45
31775;BME280;66189;49.000;11.640;2023-03-03T07:49:44;96120.19;;;3.47;57.46
31775;BME280;66189;49.000;11.640;2023-03-03T07:51:45;96121.97;;;3.60;57.95
31775;BME280;66189;49.000;11.640;2023-03-03T07:53:47;96128.84;;;3.61;58.93
31775;BME280;66189;49.000;11.640;2023-03-03T07:55:48;96132.53;;;3.83;57.78
31775;BME280;66189;49.000;11.640;2023-03-03T07:57:51;96135.50;;;3.81;56.50
31775;BME280;66189;49.000;11.640;2023-03-03T08:02:32;96135.22;;;4.00;58.57
31775;BME280;66189;49.000;11.640;2023-03-03T08:04:41;96141.63;;;3.90;56.82
31775;BME280;66189;49.000;11.640;2023-03-03T08:06:46;96143.66;;;3.94;57.86
31775;BME280;66189;49.000;11.640;2023-03-03T08:08:47;96148.69;;;4.13;58.54
31775;BME280;66189;49.000;11.640;2023-03-03T08:10:50;96143.09;;;4.32;58.20
31775;BME280;66189;49.000;11.640;2023-03-03T08:12:51;96135.28;;;4.44;57.88
31775;BME280;66189;49.000;11.640;2023-03-03T08:14:53;96144.19;;;4.57;55.98
31775;BME280;66189;49.000;11.640;2023-03-03T08:16:55;96146.25;;;4.77;55.03
31775;BME280;66189;49.000;11.640;2023-03-03T08:18:57;96139.81;;;4.87;55.65
31775;BME280;66189;49.000;11.640;2023-03-03T08:21:22;96138.06;;;5.09;55.25
31775;BME280;66189;49.000;11.640;2023-03-03T08:23:23;96146.03;;;5.18;55.17
31775;BME280;66189;49.000;11.640;2023-03-03T08:25:24;96135.72;;;5.07;54.11
31775;BME280;66189;49.000;11.640;2023-03-03T08:27:24;96134.78;;;4.86;53.96
31775;BME280;66189;49.000;11.640;2023-03-03T08:29:24;96134.72;;;5.21;53.84
31775;BME280;66189;49.000;11.640;2023-03-03T08:31:25;96132.22;;;5.33;54.51
31775;BME280;66189;49.000;11.640;2023-03-03T08:33:26;96137.97;;;5.44;52.92
31775;BME280;66189;49.000;11.640;2023-03-03T08:35:26;96136.13;;;5.74;52.76
31775;BME280;66189;49.000;11.640;2023-03-03T08:37:27;96143.50;;;5.77;52.92
31775;BME280;66189;49.000;11.640;2023-03-03T08:39:27;96143.69;;;6.11;51.74
31775;BME280;66189;49.000;11.640;2023-03-03T08:41:28;96146.78;;;6.13;50.64
31775;BME280;66189;49.000;11.640;2023-03-03T08:43:28;96149.28;;;6.39;51.35
31775;BME280;66189;49.000;11.640;2023-03-03T08:45:28;96155.81;;;6.29;51.34
31775;BME280;66189;49.000;11.640;2023-03-03T08:47:29;96151.31;;;6.42;51.46
31775;BME280;66189;49.000;11.640;2023-03-03T08:49:29;96158.03;;;6.48;52.03
31775;BME280;66189;49.000;11.640;2023-03-03T08:51:30;96150.41;;;6.80;49.70
31775;BME280;66189;49.000;11.640;2023-03-03T08:53:32;96151.31;;;6.84;49.68
31775;BME280;66189;49.000;11.640;2023-03-03T08:55:35;96157.19;;;6.99;50.49
31775;BME280;66189;49.000;11.640;2023-03-03T08:57:36;96159.19;;;7.02;49.31
31775;BME280;66189;49.000;11.640;2023-03-03T08:59:38;96165.84;;;7.17;49.16
31775;BME280;66189;49.000;11.640;2023-03-03T09:01:38;96166.91;;;7.03;47.51
31775;BME280;66189;49.000;11.640;2023-03-03T09:03:39;96170.31;;;6.70;48.89
31775;BME280;66189;49.000;11.640;2023-03-03T09:05:39;96172.72;;;6.84;48.65
31775;BME280;66189;49.000;11.640;2023-03-03T09:07:40;96171.72;;;6.47;48.27
31775;BME280;66189;49.000;11.640;2023-03-03T09:09:41;96173.44;;;6.51;50.42
31775;BME280;66189;49.000;11.640;2023-03-03T09:11:41;96177.88;;;6.89;51.24
31775;BME280;66189;49.000;11.640;2023-03-03T09:13:43;96176.75;;;7.24;50.06
31775;BME280;66189;49.000;11.640;2023-03-03T09:15:44;96181.38;;;7.36;49.33
31775;BME280;66189;49.000;11.640;2023-03-03T09:17:47;96175.66;;;7.71;47.50
31775;BME280;66189;49.000;11.640;2023-03-03T09:19:48;96188.25;;;7.70;46.82
31775;BME280;66189;49.000;11.640;2023-03-03T09:21:54;96185.59;;;7.70;46.59
31775;BME280;66189;49.000;11.640;2023-03-03T09:23:59;96195.66;;;7.86;45.99
31775;BME280;66189;49.000;11.640;2023-03-03T09:28:30;96185.84;;;7.77;47.57
31775;BME280;66189;49.000;11.640;2023-03-03T09:30:35;96197.56;;;8.10;45.88
31775;BME280;66189;49.000;11.640;2023-03-03T09:32:37;96197.31;;;8.27;46.70
31775;BME280;66189;49.000;11.640;2023-03-03T09:34:42;96195.66;;;8.60;46.04
31775;BME280;66189;49.000;11.640;2023-03-03T09:36:42;96185.47;;;8.78;46.48
31775;BME280;66189;49.000;11.640;2023-03-03T09:38:43;96191.72;;;8.69;45.43
31775;BME280;66189;49.000;11.640;2023-03-03T09:41:08;96190.66;;;8.86;45.35
31775;BME280;66189;49.000;11.640;2023-03-03T09:43:15;96190.97;;;8.97;44.14
31775;BME280;66189;49.000;11.640;2023-03-03T09:53:18;96194.16;;;9.15;43.15
31775;BME280;66189;49.000;11.640;2023-03-03T09:55:34;96190.03;;;9.78;43.15
31775;BME280;66189;49.000;11.640;2023-03-03T09:58:01;96185.66;;;9.57;43.29
31775;BME280;66189;49.000;11.640;2023-03-03T10:00:31;96187.78;;;10.12;41.76
31775;BME280;66189;49.000;11.640;2023-03-03T10:04:59;96189.81;;;9.55;42.12
31775;BME280;66189;49.000;11.640;2023-03-03T10:16:26;96190.78;;;9.47;43.24
31775;BME280;66189;49.000;11.640;2023-03-03T10:21:01;96205.88;;;9.83;42.18
31775;BME280;66189;49.000;11.640;2023-03-03T10:25:38;96199.03;;;10.49;41.79
31775;BME280;66189;49.000;11.640;2023-03-03T10:30:12;96206.13;;;10.93;42.57
31775;BME280;66189;49.000;11.640;2023-03-03T10:37:07;96219.09;;;11.07;41.70
31775;BME280;66189;49.000;11.640;2023-03-03T10:46:41;96203.34;;;11.48;41.57
31775;BME280;66189;49.000;11.640;2023-03-03T10:53:40;96202.13;;;10.68;39.94
31775;BME280;66189;49.000;11.640;2023-03-03T11:00:30;96217.66;;;11.95;37.74
31775;BME280;66189;49.000;11.640;2023-03-03T11:02:45;96205.72;;;12.46;38.07
31775;BME280;66189;49.000;11.640;2023-03-03T11:12:31;96213.16;;;12.26;39.00
31775;BME280;66189;49.000;11.640;2023-03-03T11:17:21;96204.03;;;12.61;36.39
31775;BME280;66189;49.000;11.640;2023-03-03T11:19:37;96197.97;;;12.41;39.33
31775;BME280;66189;49.000;11.640;2023-03-03T11:31:22;96196.75;;;10.52;39.97
31775;BME280;66189;49.000;11.640;2023-03-03T11:33:39;96187.13;;;10.86;40.09
31775;BME280;66189;49.000;11.640;2023-03-03T11:35:47;96202.56;;;10.89;40.91
31775;BME280;66189;49.000;11.640;2023-03-03T11:40:03;96194.41;;;11.44;36.76
31775;BME280;66189;49.000;11.640;2023-03-03T11:42:52;96182.72;;;11.36;38.94
31775;BME280;66189;49.000;11.640;2023-03-03T11:45:33;96189.84;;;11.68;37.34
31775;BME280;66189;49.000;11.640;2023-03-03T11:50:01;96183.84;;;11.78;40.19
31775;BME280;66189;49.000;11.640;2023-03-03T11:52:16;96182.34;;;11.81;38.70
31775;BME280;66189;49.000;11.640;2023-03-03T11:54:23;96181.44;;;12.46;38.75
31775;BME280;66189;49.000;11.640;2023-03-03T11:56:34;96181.91;;;11.55;39.26
31775;BME280;66189;49.000;11.640;2023-03-03T11:58:44;96181.78;;;11.48;38.73
31775;BME280;66189;49.000;11.640;2023-03-03T12:01:13;96180.34;;;11.78;37.11
31775;BME280;66189;49.000;11.640;2023-03-03T12:03:37;96165.66;;;11.52;38.31
31775;BME280;66189;49.000;11.640;2023-03-03T12:08:22;96170.78;;;11.57;37.67
31775;BME280;66189;49.000;11.640;2023-03-03T12:12:32;96175.28;;;12.46;39.62
31775;BME280;66189;49.000;11.640;2023-03-03T12:19:34;96179.97;;;13.43;36.53
31775;BME280;66189;49.000;11.640;2023-03-03T12:22:14;96183.63;;;13.62;37.49
31775;BME280;66189;49.000;11.640;2023-03-03T12:29:26;96182.00;;;14.43;36.25
31775;BME280;66189;49.000;11.640;2023-03-03T12:31:47;96172.59;;;13.06;36.42
31775;BME280;66189;49.000;11.640;2023-03-03T12:33:58;96167.63;;;12.78;39.45
31775;BME280;66189;49.000;11.640;2023-03-03T12:40:54;96163.75;;;13.09;35.96
31775;BME280;66189;49.000;11.640;2023-03-03T12:45:37;96159.09;;;12.72;37.76
31775;BME280;66189;49.000;11.640;2023-03-03T12:48:13;96155.31;;;13.90;37.30
31775;BME280;66189;49.000;11.640;2023-03-03T12:50:29;96153.81;;;13.51;37.72
31775;BME280;66189;49.000;11.640;2023-03-03T12:53:19;96151.75;;;13.07;36.59